createdAt,value
2022-07-27T00:00:55.168Z,2.90
2022-07-27T00:01:55.065Z,2.00
2022-07-27T00:02:55.017Z,3.10
2022-07-27T00:03:55.101Z,2.00
2022-07-27T00:04:54.997Z,3.60
2022-07-27T00:05:54.985Z,2.70
2022-07-27T00:06:54.966Z,2.30
2022-07-27T00:07:54.978Z,2.40
2022-07-27T00:08:55.245Z,3.60
2022-07-27T00:09:54.946Z,3.90
2022-07-27T00:10:54.915Z,3.00
2022-07-27T00:11:54.925Z,4.60
2022-07-27T00:12:54.917Z,4.80
2022-07-27T00:13:55.645Z,4.60
2022-07-27T00:14:54.888Z,2.90
2022-07-27T00:15:54.906Z,2.80
2022-07-27T00:16:54.847Z,3.80
2022-07-27T00:17:54.856Z,3.20
2022-07-27T00:18:54.833Z,2.50
2022-07-27T00:19:55.655Z,4.00
2022-07-27T00:20:55.556Z,3.90
2022-07-27T00:21:54.817Z,4.40
2022-07-27T00:22:54.793Z,2.20
2022-07-27T00:23:54.786Z,2.30
2022-07-27T00:24:54.788Z,3.20
2022-07-27T00:25:54.776Z,3.20
2022-07-27T00:26:54.736Z,2.30
2022-07-27T00:27:54.736Z,2.70
2022-07-27T00:28:54.745Z,3.40
2022-07-27T00:29:54.726Z,7.30
2022-07-27T00:30:54.758Z,4.90
2022-07-27T00:31:54.736Z,4.10
2022-07-27T00:32:54.756Z,2.70
2022-07-27T00:33:54.666Z,3.40
2022-07-27T00:34:54.636Z,4.80
2022-07-27T00:35:54.646Z,4.20
2022-07-27T00:36:54.665Z,4.50
2022-07-27T00:37:54.627Z,5.80
2022-07-27T00:38:54.608Z,4.10
2022-07-27T00:39:54.607Z,5.80
2022-07-27T00:40:55.427Z,6.30
2022-07-27T00:41:55.569Z,4.10
2022-07-27T00:42:54.586Z,5.10
2022-07-27T00:43:54.566Z,4.20
2022-07-27T00:44:54.535Z,4.70
2022-07-27T00:45:54.537Z,5.70
2022-07-27T00:46:54.553Z,4.20
2022-07-27T00:47:55.164Z,2.70
2022-07-27T00:48:54.580Z,6.20
2022-07-27T00:49:54.488Z,4.20
2022-07-27T00:50:54.477Z,6.50
2022-07-27T00:51:54.515Z,6.70
2022-07-27T00:52:55.299Z,4.00
2022-07-27T00:53:54.451Z,7.90
2022-07-27T00:54:54.466Z,6.00
2022-07-27T00:55:54.426Z,4.60
2022-07-27T00:56:54.397Z,4.00
2022-07-27T00:57:59.533Z,4.70
2022-07-27T00:58:55.427Z,3.50
2022-07-27T00:59:54.376Z,6.70
2022-07-27T01:00:55.124Z,5.30
2022-07-27T01:01:54.503Z,6.70
2022-07-27T01:02:54.576Z,5.40
2022-07-27T01:03:55.270Z,5.20
2022-07-27T01:04:56.998Z,8.80
2022-07-27T01:05:54.306Z,8.40
2022-07-27T01:06:54.288Z,6.40
2022-07-27T01:07:54.307Z,5.40
2022-07-27T01:08:54.267Z,3.90
2022-07-27T01:09:55.215Z,4.20
2022-07-27T01:10:54.247Z,6.80
2022-07-27T01:11:54.247Z,2.30
2022-07-27T01:12:54.226Z,5.50
2022-07-27T01:13:54.245Z,3.90
2022-07-27T01:14:54.978Z,3.90
2022-07-27T01:15:54.292Z,4.10
2022-07-27T01:16:54.165Z,5.50
2022-07-27T01:17:54.169Z,5.00
2022-07-27T01:18:54.155Z,5.80
2022-07-27T01:19:54.267Z,4.00
2022-07-27T01:20:54.914Z,5.40
2022-07-27T01:21:55.076Z,5.30
2022-07-27T01:22:54.157Z,6.70
2022-07-27T01:23:54.097Z,5.40
2022-07-27T01:24:54.081Z,5.30
2022-07-27T01:25:54.109Z,5.70
2022-07-27T01:26:54.076Z,5.80
2022-07-27T01:27:54.059Z,6.40
2022-07-27T01:28:54.026Z,5.80
2022-07-27T01:29:54.027Z,6.20
2022-07-27T01:30:54.251Z,6.20
2022-07-27T01:31:54.137Z,6.50
2022-07-27T01:32:53.997Z,4.80
2022-07-27T01:33:53.977Z,8.00
2022-07-27T01:34:53.967Z,5.00
2022-07-27T01:35:53.939Z,6.20
2022-07-27T01:36:54.736Z,5.10
2022-07-27T01:37:53.949Z,5.40
2022-07-27T01:38:53.925Z,3.60
2022-07-27T01:39:53.896Z,4.00
2022-07-27T01:40:53.904Z,5.00
2022-07-27T01:41:54.686Z,6.60
2022-07-27T01:42:53.921Z,6.40
2022-07-27T01:43:54.197Z,7.20
2022-07-27T01:44:54.658Z,4.50
2022-07-27T01:45:53.845Z,5.20
2022-07-27T01:46:54.809Z,6.90
2022-07-27T01:47:53.827Z,6.30
2022-07-27T01:48:53.887Z,7.20
2022-07-27T01:49:53.789Z,6.50
2022-07-27T01:50:53.789Z,5.60
2022-07-27T01:51:53.967Z,7.00
2022-07-27T01:52:53.973Z,7.40
2022-07-27T01:53:54.557Z,4.40
2022-07-27T01:54:53.759Z,5.50
2022-07-27T01:55:53.708Z,7.50
2022-07-27T01:56:53.715Z,5.40
2022-07-27T01:57:53.687Z,5.50
2022-07-27T01:58:53.896Z,4.50
2022-07-27T01:59:53.658Z,6.00
2022-07-27T02:00:53.696Z,4.90
2022-07-27T02:01:54.415Z,6.40
2022-07-27T02:02:54.468Z,6.40
2022-07-27T02:03:54.369Z,5.70
2022-07-27T02:04:53.702Z,5.80
2022-07-27T02:05:53.609Z,6.70
2022-07-27T02:06:53.614Z,3.10
2022-07-27T02:07:53.591Z,7.90
2022-07-27T02:08:53.579Z,6.10
2022-07-27T02:09:53.567Z,6.80
2022-07-27T02:10:53.559Z,7.80
2022-07-27T02:11:53.539Z,5.20
2022-07-27T02:12:53.547Z,6.10
2022-07-27T02:13:53.528Z,6.30
2022-07-27T02:14:53.507Z,4.40
2022-07-27T02:15:54.709Z,6.00
2022-07-27T02:16:53.488Z,7.00
2022-07-27T02:17:53.449Z,5.00
2022-07-27T02:18:53.457Z,5.90
2022-07-27T02:19:53.438Z,8.10
2022-07-27T02:20:53.439Z,4.20
2022-07-27T02:21:54.183Z,3.90
2022-07-27T02:22:54.337Z,6.60
2022-07-27T02:23:54.240Z,7.80
2022-07-27T02:24:53.407Z,3.30
2022-07-27T02:25:53.368Z,5.30
2022-07-27T02:26:53.382Z,4.80
2022-07-27T02:27:53.357Z,10.20
2022-07-27T02:28:53.352Z,5.20
2022-07-27T02:29:53.419Z,5.00
2022-07-27T02:30:53.431Z,3.80
2022-07-27T02:31:53.458Z,9.30
2022-07-27T02:32:53.396Z,6.70
2022-07-27T02:33:53.269Z,6.00
2022-07-27T02:34:53.291Z,7.10
2022-07-27T02:35:53.259Z,5.20
2022-07-27T02:36:54.022Z,4.70
2022-07-27T02:37:54.178Z,3.10
2022-07-27T02:38:53.249Z,3.20
2022-07-27T02:39:53.230Z,4.60
2022-07-27T02:40:53.226Z,4.50
2022-07-27T02:41:53.908Z,6.00
2022-07-27T02:42:53.949Z,6.00
2022-07-27T02:43:54.113Z,4.70
2022-07-27T02:44:53.197Z,7.90
2022-07-27T02:45:53.525Z,8.00
2022-07-27T02:46:54.080Z,3.20
2022-07-27T02:47:53.549Z,3.60
2022-07-27T02:48:53.254Z,3.50
2022-07-27T02:49:53.099Z,4.60
2022-07-27T02:50:53.100Z,4.90
2022-07-27T02:51:53.089Z,6.60
2022-07-27T02:52:53.079Z,4.00
2022-07-27T02:53:53.258Z,5.40
2022-07-27T02:54:53.070Z,4.30
2022-07-27T02:55:53.028Z,4.90
2022-07-27T02:56:53.061Z,7.00
2022-07-27T02:57:53.020Z,6.40
2022-07-27T02:58:53.043Z,7.50
2022-07-27T02:59:53.093Z,3.40
2022-07-27T03:00:58.188Z,4.00
2022-07-27T03:01:54.075Z,5.10
2022-07-27T03:02:53.237Z,5.50
2022-07-27T03:03:53.842Z,6.20
2022-07-27T03:04:53.888Z,7.40
2022-07-27T03:05:53.112Z,7.60
2022-07-27T03:06:52.954Z,5.30
2022-07-27T03:07:52.898Z,9.90
2022-07-27T03:08:53.429Z,7.30
2022-07-27T03:09:53.421Z,7.00
2022-07-27T03:10:52.990Z,5.30
2022-07-27T03:11:52.849Z,4.70
2022-07-27T03:12:52.860Z,6.50
2022-07-27T03:13:52.848Z,5.10
2022-07-27T03:14:53.702Z,6.90
2022-07-27T03:15:52.858Z,5.80
2022-07-27T03:16:52.807Z,5.30
2022-07-27T03:17:52.811Z,4.40
2022-07-27T03:18:52.797Z,5.00
2022-07-27T03:19:52.760Z,5.70
2022-07-27T03:20:52.768Z,5.10
2022-07-27T03:21:52.750Z,5.30
2022-07-27T03:22:52.752Z,5.30
2022-07-27T03:23:52.797Z,4.80
2022-07-27T03:24:52.740Z,4.40
2022-07-27T03:25:52.807Z,5.30
2022-07-27T03:26:52.708Z,3.60
2022-07-27T03:27:52.669Z,8.00
2022-07-27T03:28:52.681Z,5.50
2022-07-27T03:29:52.648Z,8.00
2022-07-27T03:30:52.753Z,6.40
2022-07-27T03:31:52.630Z,4.20
2022-07-27T03:32:52.705Z,6.50
2022-07-27T03:33:52.609Z,5.00
2022-07-27T03:34:52.608Z,5.10
2022-07-27T03:35:52.730Z,6.50
2022-07-27T03:36:52.591Z,3.20
2022-07-27T03:37:52.560Z,4.90
2022-07-27T03:38:52.564Z,2.70
2022-07-27T03:39:52.548Z,3.70
2022-07-27T03:40:52.548Z,7.40
2022-07-27T03:41:52.720Z,6.30
2022-07-27T03:42:52.532Z,6.10
2022-07-27T03:43:52.493Z,3.00
2022-07-27T03:44:52.819Z,5.40
2022-07-27T03:45:52.856Z,4.30
2022-07-27T03:46:52.468Z,4.80
2022-07-27T03:47:52.468Z,4.10
2022-07-27T03:48:52.894Z,4.70
2022-07-27T03:49:52.430Z,2.60
2022-07-27T03:50:52.809Z,4.20
2022-07-27T03:51:52.400Z,5.80
2022-07-27T03:52:52.399Z,4.60
2022-07-27T03:53:52.380Z,5.90
2022-07-27T03:54:52.379Z,5.40
2022-07-27T03:55:52.356Z,6.00
2022-07-27T03:56:52.357Z,5.50
2022-07-27T03:57:52.331Z,9.00
2022-07-27T03:58:52.329Z,3.30
2022-07-27T03:59:52.310Z,7.90
2022-07-27T04:00:52.358Z,4.40
2022-07-27T04:01:52.282Z,4.40
2022-07-27T04:02:52.351Z,3.00
2022-07-27T04:03:52.267Z,5.30
2022-07-27T04:04:53.003Z,4.80
2022-07-27T04:05:52.979Z,3.30
2022-07-27T04:06:52.290Z,4.40
2022-07-27T04:07:54.756Z,6.90
2022-07-27T04:08:56.123Z,4.00
2022-07-27T04:09:53.189Z,5.70
2022-07-27T04:10:52.200Z,6.70
2022-07-27T04:11:52.170Z,5.10
2022-07-27T04:12:52.169Z,5.90
2022-07-27T04:13:52.141Z,6.80
2022-07-27T04:14:52.150Z,6.30
2022-07-27T04:15:52.133Z,4.10
2022-07-27T04:16:52.178Z,5.80
2022-07-27T04:17:55.239Z,5.40
2022-07-27T04:18:53.119Z,5.00
2022-07-27T04:19:52.078Z,3.60
2022-07-27T04:20:52.080Z,3.00
2022-07-27T04:21:52.049Z,6.90
2022-07-27T04:22:52.053Z,7.70
2022-07-27T04:23:52.030Z,5.30
2022-07-27T04:24:52.037Z,5.30
2022-07-27T04:25:52.277Z,5.10
2022-07-27T04:26:52.040Z,4.20
2022-07-27T04:27:51.986Z,3.70
2022-07-27T04:28:51.980Z,7.00
2022-07-27T04:29:51.949Z,3.00
2022-07-27T04:30:52.027Z,7.90
2022-07-27T04:31:51.946Z,8.00
2022-07-27T04:32:51.938Z,6.70
2022-07-27T04:33:51.919Z,6.50
2022-07-27T04:34:51.909Z,5.80
2022-07-27T04:35:51.888Z,4.60
2022-07-27T04:36:52.040Z,5.30
2022-07-27T04:37:58.330Z,6.00
2022-07-27T04:38:53.219Z,8.00
2022-07-27T04:39:51.829Z,4.40
2022-07-27T04:40:54.971Z,7.70
2022-07-27T04:41:53.619Z,4.70
2022-07-27T04:42:51.830Z,3.60
2022-07-27T04:43:51.802Z,5.00
2022-07-27T04:44:51.803Z,3.10
2022-07-27T04:45:51.810Z,5.00
2022-07-27T04:46:51.830Z,4.00
2022-07-27T04:47:51.750Z,3.90
2022-07-27T04:48:51.773Z,5.80
2022-07-27T04:49:51.720Z,3.90
2022-07-27T04:50:51.722Z,4.10
2022-07-27T04:51:51.690Z,5.10
2022-07-27T04:52:51.741Z,5.40
2022-07-27T04:53:53.813Z,3.90
2022-07-27T04:54:52.680Z,4.60
2022-07-27T04:55:51.648Z,5.70
2022-07-27T04:56:51.659Z,5.30
2022-07-27T04:57:51.630Z,5.40
2022-07-27T04:58:51.651Z,7.60
2022-07-27T04:59:51.611Z,5.30
2022-07-27T05:00:51.654Z,5.80
2022-07-27T05:01:51.663Z,4.80
2022-07-27T05:02:51.590Z,7.30
2022-07-27T05:03:51.602Z,5.40
2022-07-27T05:04:51.570Z,4.40
2022-07-27T05:05:51.582Z,5.00
2022-07-27T05:06:51.569Z,4.40
2022-07-27T05:07:51.520Z,6.70
2022-07-27T05:08:51.519Z,4.50
2022-07-27T05:09:51.499Z,4.40
2022-07-27T05:10:51.509Z,5.50
2022-07-27T05:11:52.040Z,3.90
2022-07-27T05:12:51.489Z,5.60
2022-07-27T05:13:51.449Z,6.80
2022-07-27T05:14:51.459Z,4.00
2022-07-27T05:15:55.221Z,7.30
2022-07-27T05:16:51.500Z,4.50
2022-07-27T05:17:51.410Z,4.90
2022-07-27T05:18:51.408Z,6.70
2022-07-27T05:19:51.379Z,5.30
2022-07-27T05:20:51.389Z,5.70
2022-07-27T05:21:51.361Z,8.20
2022-07-27T05:22:51.369Z,6.00
2022-07-27T05:23:51.491Z,4.90
2022-07-27T05:24:51.340Z,4.30
2022-07-27T05:25:51.312Z,6.00
2022-07-27T05:26:51.328Z,5.00
2022-07-27T05:27:54.679Z,7.60
2022-07-27T05:28:51.310Z,5.80
2022-07-27T05:29:51.279Z,5.70
2022-07-27T05:30:51.273Z,4.90
2022-07-27T05:31:51.311Z,3.50
2022-07-27T05:32:51.251Z,5.40
2022-07-27T05:33:57.501Z,4.50
2022-07-27T05:34:52.241Z,2.40
2022-07-27T05:35:51.219Z,4.90
2022-07-27T05:36:51.230Z,4.40
2022-07-27T05:37:51.170Z,4.70
2022-07-27T05:38:51.180Z,3.30
2022-07-27T05:39:51.149Z,4.20
2022-07-27T05:40:51.165Z,3.60
2022-07-27T05:41:51.871Z,3.10
2022-07-27T05:42:51.141Z,4.50
2022-07-27T05:43:51.120Z,4.10
2022-07-27T05:44:51.109Z,2.20
2022-07-27T05:45:51.174Z,5.10
2022-07-27T05:46:51.091Z,5.40
2022-07-27T05:47:51.079Z,3.60
2022-07-27T05:48:51.069Z,3.80
2022-07-27T05:49:51.060Z,4.10
2022-07-27T05:50:51.031Z,5.60
2022-07-27T05:51:51.027Z,5.40
2022-07-27T05:52:51.011Z,4.80
2022-07-27T05:53:51.069Z,4.20
2022-07-27T05:54:50.981Z,2.50
2022-07-27T05:55:58.879Z,3.30
2022-07-27T05:56:51.973Z,2.20
2022-07-27T05:57:50.962Z,3.70
2022-07-27T05:58:51.131Z,4.20
2022-07-27T05:59:50.941Z,3.60
2022-07-27T06:00:51.005Z,2.60
2022-07-27T06:01:51.010Z,3.60
2022-07-27T06:02:50.891Z,6.00
2022-07-27T06:03:50.997Z,4.50
2022-07-27T06:04:50.873Z,4.30
2022-07-27T06:05:50.873Z,6.80
2022-07-27T06:06:50.841Z,3.10
2022-07-27T06:07:50.862Z,5.30
2022-07-27T06:08:50.842Z,3.40
2022-07-27T06:09:50.830Z,2.80
2022-07-27T06:10:50.800Z,3.60
2022-07-27T06:11:50.800Z,5.90
2022-07-27T06:12:50.780Z,2.90
2022-07-27T06:13:50.780Z,4.00
2022-07-27T06:14:51.186Z,5.40
2022-07-27T06:15:50.775Z,4.10
2022-07-27T06:16:50.811Z,5.70
2022-07-27T06:17:50.732Z,5.60
2022-07-27T06:18:50.718Z,3.90
2022-07-27T06:19:50.711Z,5.30
2022-07-27T06:20:50.683Z,3.90
2022-07-27T06:21:53.776Z,3.60
2022-07-27T06:22:50.670Z,3.90
2022-07-27T06:23:50.662Z,2.00
2022-07-27T06:24:50.642Z,4.60
2022-07-27T06:25:50.654Z,6.50
2022-07-27T06:26:50.623Z,3.90
2022-07-27T06:27:51.373Z,5.10
2022-07-27T06:28:51.455Z,3.30
2022-07-27T06:29:50.621Z,5.20
2022-07-27T06:30:50.572Z,6.00
2022-07-27T06:31:50.649Z,6.50
2022-07-27T06:32:50.553Z,3.10
2022-07-27T06:33:52.276Z,4.20
2022-07-27T06:34:50.532Z,3.30
2022-07-27T06:35:50.532Z,5.90
2022-07-27T06:36:50.503Z,4.40
2022-07-27T06:37:50.511Z,3.20
2022-07-27T06:38:50.483Z,5.60
2022-07-27T06:39:50.522Z,3.40
2022-07-27T06:40:50.463Z,3.40
2022-07-27T06:41:56.172Z,2.20
2022-07-27T06:42:51.464Z,3.40
2022-07-27T06:43:50.464Z,2.90
2022-07-27T06:44:50.446Z,2.80
2022-07-27T06:45:50.434Z,5.30
2022-07-27T06:46:50.439Z,3.90
2022-07-27T06:47:50.401Z,4.30
2022-07-27T06:48:51.351Z,3.40
2022-07-27T06:49:51.237Z,2.60
2022-07-27T06:50:50.385Z,2.80
2022-07-27T06:51:50.372Z,3.50
2022-07-27T06:52:50.323Z,4.20
2022-07-27T06:53:50.333Z,5.00
2022-07-27T06:54:50.297Z,4.00
2022-07-27T06:55:50.313Z,2.50
2022-07-27T06:56:50.283Z,4.10
2022-07-27T06:57:50.283Z,3.30
2022-07-27T06:58:50.255Z,5.30
2022-07-27T06:59:50.263Z,4.40
2022-07-27T07:00:50.301Z,3.90
2022-07-27T07:01:50.233Z,7.50
2022-07-27T07:02:50.243Z,2.00
2022-07-27T07:03:50.302Z,2.60
2022-07-27T07:04:50.183Z,3.40
2022-07-27T07:05:50.864Z,3.20
2022-07-27T07:06:50.167Z,5.80
2022-07-27T07:07:50.176Z,3.80
2022-07-27T07:08:50.957Z,4.90
2022-07-27T07:09:50.165Z,4.10
2022-07-27T07:10:50.334Z,5.20
2022-07-27T07:11:50.913Z,2.30
2022-07-27T07:12:50.105Z,3.90
2022-07-27T07:13:50.282Z,3.60
2022-07-27T07:14:50.115Z,2.90
2022-07-27T07:15:50.839Z,2.50
2022-07-27T07:16:50.196Z,1.90
2022-07-27T07:17:50.061Z,2.50
2022-07-27T07:18:52.485Z,4.60
2022-07-27T07:19:50.023Z,1.90
2022-07-27T07:20:50.010Z,2.40
2022-07-27T07:21:50.725Z,2.50
2022-07-27T07:22:50.875Z,3.80
2022-07-27T07:23:49.999Z,2.20
2022-07-27T07:24:49.954Z,2.60
2022-07-27T07:25:50.008Z,4.40
2022-07-27T07:26:50.759Z,5.10
2022-07-27T07:27:50.009Z,3.30
2022-07-27T07:28:49.931Z,1.90
2022-07-27T07:29:50.718Z,1.50
2022-07-27T07:30:49.915Z,3.10
2022-07-27T07:31:49.947Z,3.10
2022-07-27T07:32:49.892Z,2.30
2022-07-27T07:33:50.601Z,2.20
2022-07-27T07:34:49.856Z,3.80
2022-07-27T07:36:13.761Z,2.20
2022-07-27T07:36:50.826Z,2.80
2022-07-27T07:37:50.546Z,2.70
2022-07-27T07:38:50.596Z,1.80
2022-07-27T07:39:50.075Z,2.20
2022-07-27T07:40:50.036Z,1.90
2022-07-27T07:41:50.596Z,2.00
2022-07-27T07:42:49.785Z,4.60
2022-07-27T07:43:49.767Z,3.60
2022-07-27T07:44:49.888Z,3.70
2022-07-27T07:45:51.562Z,4.60
2022-07-27T07:46:49.749Z,1.60
2022-07-27T07:47:49.716Z,2.70
2022-07-27T07:48:49.770Z,1.30
2022-07-27T07:49:50.648Z,2.20
2022-07-27T07:50:51.287Z,1.00
2022-07-27T07:51:49.686Z,1.80
2022-07-27T07:52:49.660Z,2.60
2022-07-27T07:53:49.646Z,1.60
2022-07-27T07:54:49.636Z,1.80
2022-07-27T07:55:49.640Z,3.00
2022-07-27T07:56:49.626Z,1.60
2022-07-27T07:57:50.815Z,2.30
2022-07-27T07:58:49.588Z,2.90
2022-07-27T07:59:50.357Z,1.70
2022-07-27T08:00:49.582Z,2.40
2022-07-27T08:01:49.681Z,2.50
2022-07-27T08:02:49.745Z,1.90
2022-07-27T08:03:51.247Z,1.70
2022-07-27T08:04:49.508Z,2.30
2022-07-27T08:05:49.522Z,2.70
2022-07-27T08:06:50.237Z,3.90
2022-07-27T08:07:49.508Z,2.50
2022-07-27T08:08:49.470Z,2.80
2022-07-27T08:09:50.207Z,3.80
2022-07-27T08:10:49.476Z,4.10
2022-07-27T08:11:49.459Z,2.20
2022-07-27T08:12:49.429Z,3.50
2022-07-27T08:13:49.454Z,3.20
2022-07-27T08:14:50.244Z,2.30
2022-07-27T08:15:49.521Z,2.60
2022-07-27T08:16:49.369Z,2.00
2022-07-27T08:17:49.369Z,3.70
2022-07-27T08:18:49.358Z,2.30
2022-07-27T08:19:49.419Z,3.10
2022-07-27T08:20:49.478Z,2.00
2022-07-27T08:21:49.353Z,2.70
2022-07-27T08:22:50.240Z,1.30
2022-07-27T08:23:49.309Z,2.20
2022-07-27T08:24:49.282Z,2.10
2022-07-27T08:25:49.278Z,1.30
2022-07-27T08:26:49.260Z,2.20
2022-07-27T08:27:50.011Z,3.50
2022-07-27T08:28:50.172Z,2.60
2022-07-27T08:29:51.849Z,3.00
2022-07-27T08:30:49.989Z,3.20
2022-07-27T08:31:52.876Z,2.90
2022-07-27T08:32:49.230Z,3.00
2022-07-27T08:33:49.960Z,4.60
2022-07-27T08:34:50.110Z,3.10
2022-07-27T08:35:49.175Z,3.50
2022-07-27T08:36:49.149Z,2.10
2022-07-27T08:37:49.166Z,7.00
2022-07-27T08:38:49.175Z,1.60
2022-07-27T08:40:50.228Z,4.60
2022-07-27T08:41:49.951Z,1.70
2022-07-27T08:42:49.237Z,1.40
2022-07-27T08:43:50.020Z,2.10
2022-07-27T08:44:49.751Z,3.20
2022-07-27T08:45:49.827Z,1.00
2022-07-27T08:46:49.068Z,2.50
2022-07-27T08:47:49.031Z,2.10
2022-07-27T08:48:49.101Z,2.60
2022-07-27T08:49:49.895Z,5.10
2022-07-27T08:50:49.003Z,4.80
2022-07-27T08:51:49.022Z,4.50
2022-07-27T08:52:48.972Z,3.70
2022-07-27T08:53:53.391Z,1.70
2022-07-27T08:54:49.942Z,1.70
2022-07-27T08:55:49.093Z,2.80
2022-07-27T08:56:48.934Z,3.70
2022-07-27T08:57:48.922Z,3.20
2022-07-27T08:58:48.910Z,0.70
2022-07-27T08:59:48.904Z,3.80
2022-07-27T09:00:48.883Z,2.90
2022-07-27T09:01:49.901Z,2.10
2022-07-27T09:03:02.594Z,2.00
2022-07-27T09:03:48.977Z,1.60
2022-07-27T09:04:48.842Z,2.20
2022-07-27T09:05:48.833Z,2.80
2022-07-27T09:06:53.223Z,1.50
2022-07-27T09:07:49.822Z,2.90
2022-07-27T09:08:53.113Z,1.50
2022-07-27T09:09:48.791Z,2.00
2022-07-27T09:10:48.825Z,3.50
2022-07-27T09:11:49.636Z,0.90
2022-07-27T09:12:48.763Z,2.10
2022-07-27T09:13:48.913Z,1.80
2022-07-27T09:14:52.999Z,3.30
2022-07-27T09:16:16.260Z,2.70
2022-07-27T09:17:50.706Z,2.20
2022-07-27T09:18:48.883Z,2.30
2022-07-27T09:19:48.674Z,2.70
2022-07-27T09:20:48.678Z,2.70
2022-07-27T09:21:48.670Z,1.90
2022-07-27T09:22:48.635Z,1.80
2022-07-27T09:23:49.503Z,2.00
2022-07-27T09:24:48.631Z,1.90
2022-07-27T09:26:04.145Z,2.90
2022-07-27T09:26:49.583Z,2.90
2022-07-27T09:27:49.387Z,2.20
2022-07-27T09:28:48.746Z,2.30
2022-07-27T09:29:48.564Z,2.50
2022-07-27T09:30:48.553Z,3.10
2022-07-27T09:31:49.293Z,1.20
2022-07-27T09:32:52.744Z,3.30
2022-07-27T09:33:49.395Z,1.90
2022-07-27T09:34:48.503Z,1.90
2022-07-27T09:35:48.496Z,3.40
2022-07-27T09:36:48.574Z,1.60
2022-07-27T09:37:48.584Z,2.10
2022-07-27T09:38:53.566Z,2.50
2022-07-27T09:39:50.287Z,1.60
2022-07-27T09:40:48.631Z,3.30
2022-07-27T09:41:48.653Z,1.40
2022-07-27T09:43:07.350Z,3.40
2022-07-27T09:44:29.871Z,2.00
2022-07-27T09:44:53.610Z,2.20
2022-07-27T09:45:51.564Z,2.30
2022-07-27T09:46:48.472Z,2.60
2022-07-27T09:47:48.363Z,2.20
2022-07-27T09:48:48.388Z,2.20
2022-07-27T09:49:48.346Z,1.80
2022-07-27T09:51:01.497Z,3.50
2022-07-27T09:51:59.924Z,3.00
2022-07-27T09:52:50.051Z,1.80
2022-07-27T09:53:49.189Z,2.60
2022-07-27T09:54:48.276Z,2.90
2022-07-27T09:55:48.277Z,1.80
2022-07-27T09:56:48.768Z,1.30
2022-07-27T09:57:49.057Z,1.00
2022-07-27T09:58:48.230Z,4.10
2022-07-27T09:59:48.218Z,3.20
2022-07-27T10:00:48.218Z,2.00
2022-07-27T10:01:54.325Z,2.30
2022-07-27T10:02:49.234Z,1.80
2022-07-27T10:03:48.178Z,1.90
2022-07-27T10:04:48.322Z,2.50
2022-07-27T10:05:48.159Z,1.40
2022-07-27T10:07:02.304Z,1.70
2022-07-27T10:07:49.183Z,4.70
2022-07-27T10:08:48.137Z,1.70
2022-07-27T10:09:48.105Z,3.10
2022-07-27T10:10:48.106Z,3.70
2022-07-27T10:11:48.088Z,1.00
2022-07-27T10:12:54.041Z,2.10
2022-07-27T10:13:49.828Z,2.70
2022-07-27T10:14:48.088Z,2.70
2022-07-27T10:15:48.299Z,2.70
2022-07-27T10:16:48.057Z,0.60
2022-07-27T10:17:48.020Z,2.80
2022-07-27T10:18:50.817Z,2.60
2022-07-27T10:19:48.999Z,1.90
2022-07-27T10:20:48.024Z,2.30
2022-07-27T10:21:47.977Z,2.00
2022-07-27T10:22:47.978Z,0.90
2022-07-27T10:23:48.866Z,2.90
2022-07-27T10:24:53.041Z,1.10
2022-07-27T10:25:48.940Z,3.30
2022-07-27T10:26:47.942Z,1.00
2022-07-27T10:27:47.901Z,1.90
2022-07-27T10:28:47.902Z,2.10
2022-07-27T10:29:47.880Z,2.90
2022-07-27T10:30:54.069Z,1.90
2022-07-27T10:31:48.870Z,2.50
2022-07-27T10:32:47.877Z,2.30
2022-07-27T10:33:48.682Z,2.40
2022-07-27T10:34:47.890Z,1.10
2022-07-27T10:35:47.830Z,1.40
2022-07-27T10:36:47.812Z,2.00
2022-07-27T10:37:47.811Z,2.30
2022-07-27T10:38:47.822Z,1.50
2022-07-27T10:39:47.772Z,1.90
2022-07-27T10:40:47.772Z,2.50
2022-07-27T10:41:47.752Z,2.10
2022-07-27T10:42:53.565Z,1.70
2022-07-27T10:43:48.732Z,2.90
2022-07-27T10:44:47.743Z,0.60
2022-07-27T10:46:00.206Z,2.30
2022-07-27T10:46:49.493Z,1.60
2022-07-27T10:47:47.692Z,1.70
2022-07-27T10:48:49.159Z,0.90
2022-07-27T10:49:47.683Z,2.00
2022-07-27T10:50:47.663Z,1.40
2022-07-27T10:51:47.664Z,1.20
2022-07-27T10:52:47.634Z,2.50
2022-07-27T10:54:53.567Z,1.30
2022-07-27T10:55:49.373Z,2.90
2022-07-27T10:56:47.734Z,1.20
2022-07-27T10:57:47.578Z,2.80
2022-07-27T10:58:47.599Z,1.50
2022-07-27T11:00:53.599Z,2.20
2022-07-27T11:01:48.659Z,4.90
2022-07-27T11:02:47.523Z,1.60
2022-07-27T11:03:47.515Z,3.00
2022-07-27T11:04:47.518Z,1.60
2022-07-27T11:06:01.017Z,2.70
2022-07-27T11:07:23.153Z,2.80
2022-07-27T11:08:13.749Z,2.00
2022-07-27T11:09:08.518Z,1.90
2022-07-27T11:10:03.644Z,2.90
2022-07-27T11:10:48.559Z,1.50
2022-07-27T11:11:47.408Z,2.60
2022-07-27T11:12:47.443Z,1.00
2022-07-27T11:13:47.885Z,1.80
2022-07-27T11:14:48.358Z,1.40
2022-07-27T11:15:47.607Z,2.30
2022-07-27T11:16:55.637Z,2.30
2022-07-27T11:17:57.732Z,2.40
2022-07-27T11:18:53.046Z,1.60
2022-07-27T11:19:48.405Z,3.30
2022-07-27T11:20:47.328Z,0.80
2022-07-27T11:21:47.288Z,1.30
2022-07-27T11:23:51.268Z,1.30
2022-07-27T11:24:47.288Z,2.10
2022-07-27T11:25:47.248Z,1.30
2022-07-27T11:26:47.251Z,2.50
2022-07-27T11:27:47.228Z,1.10
2022-07-27T11:28:47.228Z,2.80
2022-07-27T11:29:47.208Z,2.10
2022-07-27T11:30:47.294Z,3.40
2022-07-27T11:31:56.687Z,2.50
2022-07-27T11:32:48.189Z,1.70
2022-07-27T11:33:47.169Z,1.50
2022-07-27T11:34:47.198Z,1.90
2022-07-27T11:35:48.099Z,3.60
2022-07-27T11:36:47.151Z,1.40
2022-07-27T11:37:47.119Z,1.20
2022-07-27T11:38:47.138Z,1.20
2022-07-27T11:40:07.563Z,2.80
2022-07-27T11:40:57.963Z,1.50
2022-07-27T11:42:08.688Z,1.70
2022-07-27T11:42:48.109Z,2.90
2022-07-27T11:43:47.050Z,1.60
2022-07-27T11:44:47.052Z,3.30
2022-07-27T11:45:47.105Z,3.00
2022-07-27T11:46:47.038Z,1.60
2022-07-27T11:47:47.018Z,1.70
2022-07-27T11:49:05.345Z,2.30
2022-07-27T11:49:48.092Z,2.30
2022-07-27T11:50:46.990Z,2.30
2022-07-27T11:51:46.966Z,2.60
2022-07-27T11:52:46.960Z,2.00
2022-07-27T11:53:46.972Z,1.80
2022-07-27T11:54:46.949Z,1.90
2022-07-27T11:55:46.938Z,2.90
2022-07-27T11:56:46.921Z,1.50
2022-07-27T11:57:46.903Z,2.40
2022-07-27T11:58:46.892Z,2.40
2022-07-27T11:59:46.875Z,1.70
2022-07-27T12:00:46.883Z,1.60
2022-07-27T12:01:46.843Z,1.60
2022-07-27T12:02:46.940Z,1.90
2022-07-27T12:03:47.850Z,3.20
2022-07-27T12:04:46.923Z,1.10
2022-07-27T12:05:46.823Z,1.60
2022-07-27T12:06:46.823Z,3.60
2022-07-27T12:07:46.783Z,2.90
2022-07-27T12:08:46.783Z,1.60
2022-07-27T12:09:46.766Z,2.20
2022-07-27T12:10:46.764Z,1.10
2022-07-27T12:11:46.746Z,0.80
2022-07-27T12:12:46.754Z,1.60
2022-07-27T12:13:46.714Z,2.70
2022-07-27T12:14:46.763Z,1.10
2022-07-27T12:15:47.142Z,1.70
2022-07-27T12:16:46.735Z,2.60
2022-07-27T12:17:46.825Z,1.60
2022-07-27T12:18:46.684Z,1.40
2022-07-27T12:19:46.654Z,1.80
2022-07-27T12:20:46.657Z,1.90
2022-07-27T12:21:48.493Z,1.70
2022-07-27T12:22:46.638Z,1.50
2022-07-27T12:23:46.644Z,1.20
2022-07-27T12:24:46.638Z,2.60
2022-07-27T12:25:46.594Z,1.80
2022-07-27T12:26:46.587Z,2.10
2022-07-27T12:27:46.566Z,2.50
2022-07-27T12:28:46.569Z,1.70
2022-07-27T12:29:46.548Z,3.20
2022-07-27T12:30:46.625Z,3.20
2022-07-27T12:31:46.517Z,2.80
2022-07-27T12:32:46.532Z,2.10
2022-07-27T12:33:48.184Z,0.70
2022-07-27T12:34:46.519Z,1.50
2022-07-27T12:35:46.916Z,1.90
2022-07-27T12:36:46.492Z,4.90
2022-07-27T12:37:46.462Z,3.10
2022-07-27T12:38:46.458Z,1.70
2022-07-27T12:39:46.426Z,0.90
2022-07-27T12:40:46.433Z,0.90
2022-07-27T12:41:46.408Z,2.50
2022-07-27T12:42:46.406Z,2.10
2022-07-27T12:43:46.420Z,1.30
2022-07-27T12:44:46.398Z,2.10
2022-07-27T12:45:46.461Z,1.10
2022-07-27T12:46:46.387Z,2.70
2022-07-27T12:47:46.349Z,4.10
2022-07-27T12:48:46.398Z,1.00
2022-07-27T12:49:46.751Z,3.30
2022-07-27T12:50:46.317Z,1.40
2022-07-27T12:51:46.297Z,1.40
2022-07-27T12:52:46.306Z,1.90
2022-07-27T12:53:46.286Z,1.50
2022-07-27T12:54:46.313Z,4.00
2022-07-27T12:55:46.269Z,1.50
2022-07-27T12:56:46.369Z,3.50
2022-07-27T12:57:55.649Z,1.20
2022-07-27T12:58:47.239Z,3.20
2022-07-27T12:59:46.210Z,2.90
2022-07-27T13:00:46.301Z,2.40
2022-07-27T13:01:46.278Z,1.90
2022-07-27T13:02:46.236Z,1.20
2022-07-27T13:03:46.170Z,2.90
2022-07-27T13:04:46.161Z,3.10
2022-07-27T13:05:46.143Z,1.30
2022-07-27T13:06:46.141Z,1.00
2022-07-27T13:07:46.120Z,1.20
2022-07-27T13:08:46.123Z,1.50
2022-07-27T13:10:01.843Z,2.00
2022-07-27T13:10:47.100Z,1.70
2022-07-27T13:11:48.059Z,1.50
2022-07-27T13:12:46.084Z,2.10
2022-07-27T13:13:46.075Z,1.40
2022-07-27T13:14:46.056Z,2.70
2022-07-27T13:15:46.042Z,1.90
2022-07-27T13:16:46.112Z,1.20
2022-07-27T13:17:46.033Z,1.30
2022-07-27T13:18:46.011Z,1.60
2022-07-27T13:19:45.988Z,1.80
2022-07-27T13:20:45.989Z,3.70
2022-07-27T13:21:45.966Z,3.30
2022-07-27T13:22:46.102Z,2.20
2022-07-27T13:23:45.942Z,3.30